sensor_id;sensor_type;location;lat;lon;timestamp;pressure;altitude;pressure_sealevel;temperature;humidity
22283;BME280;11310;51.528;21.204;2023-04-01T00:00:56;98099.81;;;7.74;100.00
22283;BME280;11310;51.528;21.204;2023-04-01T00:03:26;98099.28;;;7.69;100.00
22283;BME280;11310;51.528;21.204;2023-04-01T00:05:58;98097.69;;;7.66;100.00
22283;BME280;11310;51.528;21.204;2023-04-01T00:08:27;98087.25;;;7.66;100.00
22283;BME280;11310;51.528;21.204;2023-04-01T00:10:56;98089.78;;;7.68;100.00
22283;BME280;11310;51.528;21.204;2023-04-01T00:13:26;98079.34;;;7.68;100.00
22283;BME280;11310;51.528;21.204;2023-04-01T00:15:56;98073.63;;;7.75;100.00
22283;BME280;11310;51.528;21.204;2023-04-01T00:18:27;98069.97;;;7.78;100.00
22283;BME280;11310;51.528;21.204;2023-04-01T00:20:57;98071.84;;;7.76;100.00
22283;BME280;11310;51.528;21.204;2023-04-01T00:23:26;98085.19;;;7.71;100.00
22283;BME280;11310;51.528;21.204;2023-04-01T00:25:55;98088.31;;;7.64;100.00
22283;BME280;11310;51.528;21.204;2023-04-01T00:28:24;98091.31;;;7.58;100.00
22283;BME280;11310;51.528;21.204;2023-04-01T00:30:53;98087.59;;;7.62;100.00
22283;BME280;11310;51.528;21.204;2023-04-01T00:33:23;98081.00;;;7.69;100.00
22283;BME280;11310;51.528;21.204;2023-04-01T00:35:52;98078.00;;;7.75;100.00
22283;BME280;11310;51.528;21.204;2023-04-01T00:38:21;98076.13;;;7.77;100.00
22283;BME280;11310;51.528;21.204;2023-04-01T00:40:57;98072.66;;;7.76;100.00
22283;BME280;11310;51.528;21.204;2023-04-01T00:43:27;98078.75;;;7.77;100.00
22283;BME280;11310;51.528;21.204;2023-04-01T00:45:56;98073.34;;;7.80;100.00
22283;BME280;11310;51.528;21.204;2023-04-01T00:48:28;98071.44;;;7.82;100.00
22283;BME280;11310;51.528;21.204;2023-04-01T00:51:02;98069.56;;;7.84;100.00
22283;BME280;11310;51.528;21.204;2023-04-01T00:53:35;98078.75;;;7.89;100.00
22283;BME280;11310;51.528;21.204;2023-04-01T00:56:09;98076.59;;;7.96;100.00
22283;BME280;11310;51.528;21.204;2023-04-01T00:58:44;98069.38;;;7.99;100.00
22283;BME280;11310;51.528;21.204;2023-04-01T01:01:15;98064.81;;;8.03;100.00
22283;BME280;11310;51.528;21.204;2023-04-01T01:03:46;98063.88;;;8.04;100.00
22283;BME280;11310;51.528;21.204;2023-04-01T01:06:26;98061.16;;;8.05;100.00
22283;BME280;11310;51.528;21.204;2023-04-01T01:09:09;98054.88;;;8.08;100.00
22283;BME280;11310;51.528;21.204;2023-04-01T01:11:42;98059.16;;;8.09;100.00
22283;BME280;11310;51.528;21.204;2023-04-01T01:14:26;98051.22;;;8.10;100.00
22283;BME280;11310;51.528;21.204;2023-04-01T01:17:06;98044.97;;;8.13;100.00
22283;BME280;11310;51.528;21.204;2023-04-01T01:19:51;98048.19;;;8.16;100.00
22283;BME280;11310;51.528;21.204;2023-04-01T01:22:38;98056.66;;;8.20;100.00
22283;BME280;11310;51.528;21.204;2023-04-01T01:25:19;98056.66;;;8.20;100.00
22283;BME280;11310;51.528;21.204;2023-04-01T01:27:58;98054.13;;;8.18;100.00
22283;BME280;11310;51.528;21.204;2023-04-01T01:30:41;98049.75;;;8.19;100.00
22283;BME280;11310;51.528;21.204;2023-04-01T01:33:39;98054.97;;;8.19;100.00
22283;BME280;11310;51.528;21.204;2023-04-01T01:36:15;98053.41;;;8.16;100.00
22283;BME280;11310;51.528;21.204;2023-04-01T01:38:47;98055.19;;;8.16;100.00
22283;BME280;11310;51.528;21.204;2023-04-01T01:41:18;98057.06;;;8.14;100.00
22283;BME280;11310;51.528;21.204;2023-04-01T01:43:51;98052.69;;;8.14;100.00
22283;BME280;11310;51.528;21.204;2023-04-01T01:46:23;98045.69;;;8.15;100.00
22283;BME280;11310;51.528;21.204;2023-04-01T01:48:55;98042.34;;;8.13;100.00
22283;BME280;11310;51.528;21.204;2023-04-01T01:51:27;98032.84;;;8.12;100.00
22283;BME280;11310;51.528;21.204;2023-04-01T01:53:56;98035.47;;;8.12;100.00
22283;BME280;11310;51.528;21.204;2023-04-01T01:56:27;98031.91;;;8.13;100.00
22283;BME280;11310;51.528;21.204;2023-04-01T01:58:58;98025.03;;;8.12;100.00
22283;BME280;11310;51.528;21.204;2023-04-01T02:01:31;98021.75;;;8.08;100.00
22283;BME280;11310;51.528;21.204;2023-04-01T02:04:09;98024.38;;;8.08;100.00
22283;BME280;11310;51.528;21.204;2023-04-01T02:06:44;98023.44;;;8.09;100.00
22283;BME280;11310;51.528;21.204;2023-04-01T02:09:16;98021.25;;;8.03;100.00
22283;BME280;11310;51.528;21.204;2023-04-01T02:11:48;98013.63;;;8.00;100.00
22283;BME280;11310;51.528;21.204;2023-04-01T02:14:20;98019.06;;;7.97;100.00
22283;BME280;11310;51.528;21.204;2023-04-01T02:16:53;98028.31;;;7.89;100.00
22283;BME280;11310;51.528;21.204;2023-04-01T02:19:26;98036.47;;;7.84;100.00
22283;BME280;11310;51.528;21.204;2023-04-01T02:22:01;98036.56;;;7.83;100.00
22283;BME280;11310;51.528;21.204;2023-04-01T02:24:33;98037.19;;;7.86;100.00
22283;BME280;11310;51.528;21.204;2023-04-01T02:27:05;98038.75;;;7.89;100.00
22283;BME280;11310;51.528;21.204;2023-04-01T02:29:34;98034.09;;;7.94;100.00
22283;BME280;11310;51.528;21.204;2023-04-01T02:32:07;98030.97;;;8.01;100.00
22283;BME280;11310;51.528;21.204;2023-04-01T02:34:36;98024.47;;;8.07;100.00
22283;BME280;11310;51.528;21.204;2023-04-01T02:37:07;98033.06;;;8.09;100.00
22283;BME280;11310;51.528;21.204;2023-04-01T02:39:36;98034.53;;;8.13;100.00
22283;BME280;11310;51.528;21.204;2023-04-01T02:42:04;98026.69;;;8.13;100.00
22283;BME280;11310;51.528;21.204;2023-04-01T02:44:34;98029.06;;;8.16;100.00
22283;BME280;11310;51.528;21.204;2023-04-01T02:47:03;98042.88;;;8.18;100.00
22283;BME280;11310;51.528;21.204;2023-04-01T02:49:32;98037.47;;;8.21;100.00
22283;BME280;11310;51.528;21.204;2023-04-01T02:52:01;98042.47;;;8.24;100.00
22283;BME280;11310;51.528;21.204;2023-04-01T02:54:31;98038.94;;;8.25;100.00
22283;BME280;11310;51.528;21.204;2023-04-01T02:57:00;98042.47;;;8.24;100.00
22283;BME280;11310;51.528;21.204;2023-04-01T02:59:29;98043.34;;;8.24;100.00
22283;BME280;11310;51.528;21.204;2023-04-01T03:01:57;98051.97;;;8.25;100.00
22283;BME280;11310;51.528;21.204;2023-04-01T03:04:26;98059.00;;;8.24;100.00
22283;BME280;11310;51.528;21.204;2023-04-01T03:06:54;98059.72;;;8.26;100.00
22283;BME280;11310;51.528;21.204;2023-04-01T03:09:23;98063.19;;;8.27;100.00
22283;BME280;11310;51.528;21.204;2023-04-01T03:11:53;98072.56;;;8.29;100.00
22283;BME280;11310;51.528;21.204;2023-04-01T03:14:22;98068.06;;;8.31;100.00
22283;BME280;11310;51.528;21.204;2023-04-01T03:16:52;98073.19;;;8.33;100.00
22283;BME280;11310;51.528;21.204;2023-04-01T03:19:20;98067.78;;;8.36;100.00
22283;BME280;11310;51.528;21.204;2023-04-01T03:21:49;98066.72;;;8.38;100.00
22283;BME280;11310;51.528;21.204;2023-04-01T03:24:18;98070.81;;;8.42;100.00
22283;BME280;11310;51.528;21.204;2023-04-01T03:26:47;98070.91;;;8.41;100.00
22283;BME280;11310;51.528;21.204;2023-04-01T03:29:18;98070.28;;;8.37;100.00
22283;BME280;11310;51.528;21.204;2023-04-01T03:31:46;98078.94;;;8.38;100.00
22283;BME280;11310;51.528;21.204;2023-04-01T03:34:15;98077.28;;;8.37;100.00
22283;BME280;11310;51.528;21.204;2023-04-01T03:36:44;98074.47;;;8.40;100.00
22283;BME280;11310;51.528;21.204;2023-04-01T03:39:13;98081.34;;;8.41;100.00
22283;BME280;11310;51.528;21.204;2023-04-01T03:41:46;98085.44;;;8.45;100.00
22283;BME280;11310;51.528;21.204;2023-04-01T03:44:14;98079.06;;;8.49;100.00
22283;BME280;11310;51.528;21.204;2023-04-01T03:46:47;98085.00;;;8.51;100.00
22283;BME280;11310;51.528;21.204;2023-04-01T03:49:17;98080.50;;;8.53;100.00
22283;BME280;11310;51.528;21.204;2023-04-01T03:51:46;98087.41;;;8.54;100.00
22283;BME280;11310;51.528;21.204;2023-04-01T03:54:15;98086.47;;;8.55;100.00
22283;BME280;11310;51.528;21.204;2023-04-01T03:56:44;98097.63;;;8.57;100.00
22283;BME280;11310;51.528;21.204;2023-04-01T03:59:13;98094.13;;;8.58;100.00
22283;BME280;11310;51.528;21.204;2023-04-01T04:01:42;98100.06;;;8.60;100.00
22283;BME280;11310;51.528;21.204;2023-04-01T04:04:13;98096.50;;;8.61;100.00
22283;BME280;11310;51.528;21.204;2023-04-01T04:06:42;98097.97;;;8.65;100.00
22283;BME280;11310;51.528;21.204;2023-04-01T04:09:11;98100.38;;;8.68;100.00
22283;BME280;11310;51.528;21.204;2023-04-01T04:11:40;98106.31;;;8.70;100.00
22283;BME280;11310;51.528;21.204;2023-04-01T04:14:09;98113.09;;;8.72;100.00
22283;BME280;11310;51.528;21.204;2023-04-01T04:16:38;98113.22;;;8.71;100.00
22283;BME280;11310;51.528;21.204;2023-04-01T04:19:09;98107.25;;;8.69;100.00
22283;BME280;11310;51.528;21.204;2023-04-01T04:21:41;98121.03;;;8.71;100.00
22283;BME280;11310;51.528;21.204;2023-04-01T04:24:10;98114.38;;;8.67;100.00
22283;BME280;11310;51.528;21.204;2023-04-01T04:26:57;98118.34;;;8.60;100.00
22283;BME280;11310;51.528;21.204;2023-04-01T04:29:26;98118.97;;;8.51;100.00
22283;BME280;11310;51.528;21.204;2023-04-01T04:31:56;98108.28;;;8.41;100.00
22283;BME280;11310;51.528;21.204;2023-04-01T04:34:25;98121.69;;;8.37;100.00
22283;BME280;11310;51.528;21.204;2023-04-01T04:36:55;98120.41;;;8.30;100.00
22283;BME280;11310;51.528;21.204;2023-04-01T04:39:29;98125.00;;;8.26;100.00
22283;BME280;11310;51.528;21.204;2023-04-01T04:42:01;98121.88;;;8.21;100.00
22283;BME280;11310;51.528;21.204;2023-04-01T04:44:31;98123.22;;;8.14;100.00
22283;BME280;11310;51.528;21.204;2023-04-01T04:47:00;98121.81;;;8.09;100.00
22283;BME280;11310;51.528;21.204;2023-04-01T04:49:29;98120.53;;;8.02;100.00
22283;BME280;11310;51.528;21.204;2023-04-01T04:52:05;98133.06;;;7.97;100.00
22283;BME280;11310;51.528;21.204;2023-04-01T04:54:33;98128.25;;;7.91;100.00
22283;BME280;11310;51.528;21.204;2023-04-01T04:57:03;98138.88;;;7.88;100.00
22283;BME280;11310;51.528;21.204;2023-04-01T04:59:39;98131.38;;;7.83;100.00
22283;BME280;11310;51.528;21.204;2023-04-01T05:02:25;98130.75;;;7.80;100.00
22283;BME280;11310;51.528;21.204;2023-04-01T05:04:54;98137.09;;;7.76;100.00
22283;BME280;11310;51.528;21.204;2023-04-01T05:07:24;98142.59;;;7.71;100.00
22283;BME280;11310;51.528;21.204;2023-04-01T05:09:53;98150.53;;;7.70;100.00
22283;BME280;11310;51.528;21.204;2023-04-01T05:12:23;98149.47;;;7.72;100.00
22283;BME280;11310;51.528;21.204;2023-04-01T05:14:58;98152.75;;;7.76;100.00
22283;BME280;11310;51.528;21.204;2023-04-01T05:17:27;98152.53;;;7.79;100.00
22283;BME280;11310;51.528;21.204;2023-04-01T05:19:56;98151.31;;;7.84;100.00
22283;BME280;11310;51.528;21.204;2023-04-01T05:22:28;98158.75;;;7.90;100.00
22283;BME280;11310;51.528;21.204;2023-04-01T05:24:57;98159.06;;;7.98;100.00
22283;BME280;11310;51.528;21.204;2023-04-01T05:27:27;98153.56;;;8.03;100.00
22283;BME280;11310;51.528;21.204;2023-04-01T05:29:56;98153.97;;;8.09;100.00
22283;BME280;11310;51.528;21.204;2023-04-01T05:32:39;98152.66;;;8.16;100.00
22283;BME280;11310;51.528;21.204;2023-04-01T05:35:09;98145.91;;;8.26;100.00
22283;BME280;11310;51.528;21.204;2023-04-01T05:37:39;98146.16;;;8.36;100.00
22283;BME280;11310;51.528;21.204;2023-04-01T05:40:09;98150.53;;;8.48;100.00
22283;BME280;11310;51.528;21.204;2023-04-01T05:42:38;98143.53;;;8.61;100.00
22283;BME280;11310;51.528;21.204;2023-04-01T05:45:08;98152.22;;;8.74;100.00
22283;BME280;11310;51.528;21.204;2023-04-01T05:48:00;98148.03;;;8.84;100.00
22283;BME280;11310;51.528;21.204;2023-04-01T05:50:34;98141.22;;;8.94;100.00
22283;BME280;11310;51.528;21.204;2023-04-01T05:53:05;98137.03;;;9.04;100.00
22283;BME280;11310;51.528;21.204;2023-04-01T05:55:35;98143.38;;;9.12;100.00
22283;BME280;11310;51.528;21.204;2023-04-01T05:58:05;98148.19;;;9.18;100.00
22283;BME280;11310;51.528;21.204;2023-04-01T06:00:36;98141.06;;;9.20;100.00
22283;BME280;11310;51.528;21.204;2023-04-01T06:03:05;98143.59;;;9.22;100.00
22283;BME280;11310;51.528;21.204;2023-04-01T06:05:38;98143.59;;;9.22;100.00
22283;BME280;11310;51.528;21.204;2023-04-01T06:08:12;98138.38;;;9.22;100.00
22283;BME280;11310;51.528;21.204;2023-04-01T06:10:55;98128.72;;;9.22;100.00
22283;BME280;11310;51.528;21.204;2023-04-01T06:13:41;98131.28;;;9.35;100.00
22283;BME280;11310;51.528;21.204;2023-04-01T06:16:23;98129.47;;;9.48;100.00
22283;BME280;11310;51.528;21.204;2023-04-01T06:19:05;98123.88;;;9.65;100.00
22283;BME280;11310;51.528;21.204;2023-04-01T06:22:05;98128.03;;;9.91;100.00
22283;BME280;11310;51.528;21.204;2023-04-01T06:24:56;98126.47;;;10.12;100.00
22283;BME280;11310;51.528;21.204;2023-04-01T06:27:43;98133.44;;;10.35;100.00
22283;BME280;11310;51.528;21.204;2023-04-01T06:30:38;98140.88;;;10.52;100.00
22283;BME280;11310;51.528;21.204;2023-04-01T06:33:33;98137.69;;;10.59;100.00
22283;BME280;11310;51.528;21.204;2023-04-01T06:36:15;98134.78;;;10.51;100.00
22283;BME280;11310;51.528;21.204;2023-04-01T06:39:00;98132.06;;;10.53;100.00
22283;BME280;11310;51.528;21.204;2023-04-01T06:42:07;98119.69;;;10.66;100.00
22283;BME280;11310;51.528;21.204;2023-04-01T06:44:46;98120.53;;;10.77;100.00
22283;BME280;11310;51.528;21.204;2023-04-01T06:47:45;98123.19;;;10.99;100.00
22283;BME280;11310;51.528;21.204;2023-04-01T06:50:49;98128.19;;;11.02;100.00
22283;BME280;11310;51.528;21.204;2023-04-01T06:53:42;98124.72;;;11.02;100.00
22283;BME280;11310;51.528;21.204;2023-04-01T06:56:42;98128.41;;;11.10;100.00
22283;BME280;11310;51.528;21.204;2023-04-01T06:59:25;98134.47;;;11.22;100.00
22283;BME280;11310;51.528;21.204;2023-04-01T07:01:57;98144.59;;;11.37;100.00
22283;BME280;11310;51.528;21.204;2023-04-01T07:04:30;98139.47;;;11.36;100.00
22283;BME280;11310;51.528;21.204;2023-04-01T07:07:03;98148.09;;;11.38;100.00
22283;BME280;11310;51.528;21.204;2023-04-01T07:09:43;98143.28;;;11.54;100.00
22283;BME280;11310;51.528;21.204;2023-04-01T07:12:37;98143.63;;;11.72;100.00
22283;BME280;11310;51.528;21.204;2023-04-01T07:15:32;98156.31;;;11.67;100.00
22283;BME280;11310;51.528;21.204;2023-04-01T07:18:09;98148.91;;;11.60;100.00
22283;BME280;11310;51.528;21.204;2023-04-01T07:20:40;98157.75;;;11.59;100.00
22283;BME280;11310;51.528;21.204;2023-04-01T07:23:16;98153.19;;;11.61;100.00
22283;BME280;11310;51.528;21.204;2023-04-01T07:26:16;98159.41;;;11.60;100.00
22283;BME280;11310;51.528;21.204;2023-04-01T07:29:08;98153.34;;;11.60;100.00
22283;BME280;11310;51.528;21.204;2023-04-01T07:32:17;98159.03;;;11.54;100.00
22283;BME280;11310;51.528;21.204;2023-04-01T07:34:56;98154.38;;;11.46;100.00
22283;BME280;11310;51.528;21.204;2023-04-01T07:37:34;98158.13;;;11.33;100.00
22283;BME280;11310;51.528;21.204;2023-04-01T07:40:18;98164.78;;;11.26;100.00
22283;BME280;11310;51.528;21.204;2023-04-01T07:43:04;98163.59;;;11.19;100.00
22283;BME280;11310;51.528;21.204;2023-04-01T07:45:51;98170.75;;;11.17;100.00
22283;BME280;11310;51.528;21.204;2023-04-01T07:48:33;98164.22;;;11.11;100.00
22283;BME280;11310;51.528;21.204;2023-04-01T07:51:09;98174.56;;;11.13;100.00
22283;BME280;11310;51.528;21.204;2023-04-01T07:53:47;98174.44;;;11.14;100.00
22283;BME280;11310;51.528;21.204;2023-04-01T07:56:22;98172.09;;;11.11;100.00
22283;BME280;11310;51.528;21.204;2023-04-01T07:59:00;98186.97;;;11.11;100.00
22283;BME280;11310;51.528;21.204;2023-04-01T08:02:13;98191.88;;;11.04;100.00
22283;BME280;11310;51.528;21.204;2023-04-01T08:04:53;98179.13;;;11.00;100.00
22283;BME280;11310;51.528;21.204;2023-04-01T08:07:30;98196.03;;;11.07;100.00
22283;BME280;11310;51.528;21.204;2023-04-01T08:10:24;98189.00;;;11.18;100.00
22283;BME280;11310;51.528;21.204;2023-04-01T08:13:23;98194.63;;;11.47;100.00
22283;BME280;11310;51.528;21.204;2023-04-01T08:16:23;98183.34;;;11.89;100.00
22283;BME280;11310;51.528;21.204;2023-04-01T08:19:03;98189.78;;;12.28;100.00
22283;BME280;11310;51.528;21.204;2023-04-01T08:21:43;98185.00;;;12.53;100.00
22283;BME280;11310;51.528;21.204;2023-04-01T08:24:17;98183.06;;;12.76;100.00
22283;BME280;11310;51.528;21.204;2023-04-01T08:26:52;98190.94;;;12.96;100.00
22283;BME280;11310;51.528;21.204;2023-04-01T08:29:26;98194.97;;;13.11;100.00
22283;BME280;11310;51.528;21.204;2023-04-01T08:32:06;98188.94;;;13.30;100.00
22283;BME280;11310;51.528;21.204;2023-04-01T08:34:40;98189.13;;;13.38;100.00
22283;BME280;11310;51.528;21.204;2023-04-01T08:37:21;98185.22;;;13.32;100.00
22283;BME280;11310;51.528;21.204;2023-04-01T08:39:58;98185.31;;;13.21;100.00
22283;BME280;11310;51.528;21.204;2023-04-01T08:42:40;98186.00;;;13.23;100.00
22283;BME280;11310;51.528;21.204;2023-04-01T08:45:34;98185.34;;;13.31;100.00
22283;BME280;11310;51.528;21.204;2023-04-01T08:48:36;98186.72;;;13.25;100.00
22283;BME280;11310;51.528;21.204;2023-04-01T08:54:26;98177.63;;;13.09;100.00
22283;BME280;11310;51.528;21.204;2023-04-01T08:57:03;98189.06;;;12.98;100.00
22283;BME280;11310;51.528;21.204;2023-04-01T09:00:01;98181.19;;;12.98;100.00
22283;BME280;11310;51.528;21.204;2023-04-01T09:03:35;98184.13;;;13.05;100.00
22283;BME280;11310;51.528;21.204;2023-04-01T09:06:33;98183.78;;;13.19;100.00
22283;BME280;11310;51.528;21.204;2023-04-01T09:09:28;98183.97;;;13.27;100.00
22283;BME280;11310;51.528;21.204;2023-04-01T09:12:22;98181.91;;;13.40;100.00
22283;BME280;11310;51.528;21.204;2023-04-01T09:15:12;98173.84;;;13.71;100.00
22283;BME280;11310;51.528;21.204;2023-04-01T09:17:56;98175.28;;;13.94;100.00
22283;BME280;11310;51.528;21.204;2023-04-01T09:20:56;98175.84;;;13.88;100.00
22283;BME280;11310;51.528;21.204;2023-04-01T09:23:35;98176.09;;;13.85;97.73
22283;BME280;11310;51.528;21.204;2023-04-01T09:26:22;98178.72;;;13.85;100.00
22283;BME280;11310;51.528;21.204;2023-04-01T09:29:03;98170.69;;;13.96;100.00
22283;BME280;11310;51.528;21.204;2023-04-01T09:31:49;98173.78;;;14.11;99.86
22283;BME280;11310;51.528;21.204;2023-04-01T09:34:54;98175.44;;;14.02;98.10
22283;BME280;11310;51.528;21.204;2023-04-01T09:37:35;98167.22;;;13.86;100.00
22283;BME280;11310;51.528;21.204;2023-04-01T09:40:16;98166.47;;;13.65;100.00
22283;BME280;11310;51.528;21.204;2023-04-01T09:46:16;98183.13;;;13.26;100.00
22283;BME280;11310;51.528;21.204;2023-04-01T09:51:56;98186.78;;;12.94;100.00
22283;BME280;11310;51.528;21.204;2023-04-01T09:54:36;98187.88;;;12.91;100.00
22283;BME280;11310;51.528;21.204;2023-04-01T09:57:39;98188.28;;;12.87;100.00
22283;BME280;11310;51.528;21.204;2023-04-01T10:01:02;98197.50;;;12.81;100.00
22283;BME280;11310;51.528;21.204;2023-04-01T10:10:03;98190.50;;;12.91;100.00
22283;BME280;11310;51.528;21.204;2023-04-01T10:12:59;98189.69;;;13.11;100.00
22283;BME280;11310;51.528;21.204;2023-04-01T10:15:53;98187.69;;;13.24;100.00
22283;BME280;11310;51.528;21.204;2023-04-01T10:19:04;98192.13;;;13.33;100.00
22283;BME280;11310;51.528;21.204;2023-04-01T10:22:07;98191.69;;;13.28;100.00
22283;BME280;11310;51.528;21.204;2023-04-01T10:25:04;98195.00;;;13.21;100.00
22283;BME280;11310;51.528;21.204;2023-04-01T10:27:59;98196.94;;;13.19;100.00
22283;BME280;11310;51.528;21.204;2023-04-01T10:31:19;98196.81;;;13.20;100.00
22283;BME280;11310;51.528;21.204;2023-04-01T10:34:18;98190.31;;;13.24;100.00
22283;BME280;11310;51.528;21.204;2023-04-01T10:36:54;98192.25;;;13.22;100.00
22283;BME280;11310;51.528;21.204;2023-04-01T10:40:12;98189.22;;;13.27;100.00
22283;BME280;11310;51.528;21.204;2023-04-01T10:46:53;98187.47;;;13.37;99.71
22283;BME280;11310;51.528;21.204;2023-04-01T10:49:48;98195.06;;;13.30;100.00
22283;BME280;11310;51.528;21.204;2023-04-01T10:59:36;98190.03;;;13.27;100.00
22283;BME280;11310;51.528;21.204;2023-04-01T11:12:51;98182.81;;;13.20;100.00
22283;BME280;11310;51.528;21.204;2023-04-01T11:15:48;98191.69;;;13.19;100.00
22283;BME280;11310;51.528;21.204;2023-04-01T11:22:06;98192.50;;;13.19;100.00
22283;BME280;11310;51.528;21.204;2023-04-01T11:25:21;98192.59;;;13.38;100.00
22283;BME280;11310;51.528;21.204;2023-04-01T11:28:42;98189.09;;;13.77;100.00
22283;BME280;11310;51.528;21.204;2023-04-01T11:31:26;98177.09;;;14.03;98.44
22283;BME280;11310;51.528;21.204;2023-04-01T11:34:07;98183.25;;;14.32;97.73
22283;BME280;11310;51.528;21.204;2023-04-01T11:36:48;98180.56;;;14.70;96.37
22283;BME280;11310;51.528;21.204;2023-04-01T11:39:30;98181.13;;;14.83;93.43
22283;BME280;11310;51.528;21.204;2023-04-01T11:42:12;98183.88;;;14.91;92.85
22283;BME280;11310;51.528;21.204;2023-04-01T11:45:16;98185.28;;;14.95;93.13
22283;BME280;11310;51.528;21.204;2023-04-01T11:48:03;98186.94;;;14.96;92.50
22283;BME280;11310;51.528;21.204;2023-04-01T11:50:44;98186.13;;;14.86;93.66
22283;BME280;11310;51.528;21.204;2023-04-01T11:53:23;98180.44;;;14.81;94.03
22283;BME280;11310;51.528;21.204;2023-04-01T11:56:02;98181.00;;;14.75;94.17
22283;BME280;11310;51.528;21.204;2023-04-01T12:01:45;98181.59;;;14.41;95.65
22283;BME280;11310;51.528;21.204;2023-04-01T12:04:40;98179.66;;;14.24;95.68
22283;BME280;11310;51.528;21.204;2023-04-01T12:07:19;98182.22;;;14.14;98.07
22283;BME280;11310;51.528;21.204;2023-04-01T12:09:57;98173.78;;;14.11;98.96
22283;BME280;11310;51.528;21.204;2023-04-01T12:12:36;98188.63;;;14.12;99.12
22283;BME280;11310;51.528;21.204;2023-04-01T12:15:31;98172.25;;;14.08;97.95
22283;BME280;11310;51.528;21.204;2023-04-01T12:18:13;98186.66;;;14.04;98.04
22283;BME280;11310;51.528;21.204;2023-04-01T12:20:50;98178.59;;;13.96;98.71
22283;BME280;11310;51.528;21.204;2023-04-01T12:23:32;98175.53;;;13.82;98.22
22283;BME280;11310;51.528;21.204;2023-04-01T12:26:22;98195.44;;;13.56;100.00
22283;BME280;11310;51.528;21.204;2023-04-01T12:29:08;98212.44;;;13.12;100.00
22283;BME280;11310;51.528;21.204;2023-04-01T12:31:47;98208.34;;;12.67;100.00
22283;BME280;11310;51.528;21.204;2023-04-01T12:34:49;98209.28;;;12.25;100.00
22283;BME280;11310;51.528;21.204;2023-04-01T12:37:31;98205.84;;;12.14;100.00
22283;BME280;11310;51.528;21.204;2023-04-01T12:40:20;98205.91;;;12.34;100.00
22283;BME280;11310;51.528;21.204;2023-04-01T12:43:06;98204.69;;;12.38;100.00
22283;BME280;11310;51.528;21.204;2023-04-01T12:45:49;98209.06;;;12.49;100.00
22283;BME280;11310;51.528;21.204;2023-04-01T12:51:59;98208.28;;;12.78;100.00
22283;BME280;11310;51.528;21.204;2023-04-01T13:00:54;98197.78;;;13.98;100.00
22283;BME280;11310;51.528;21.204;2023-04-01T13:03:44;98195.44;;;14.90;100.00
22283;BME280;11310;51.528;21.204;2023-04-01T13:06:32;98196.78;;;15.50;98.39
22283;BME280;11310;51.528;21.204;2023-04-01T13:09:17;98198.22;;;15.44;96.34
22283;BME280;11310;51.528;21.204;2023-04-01T13:12:14;98202.06;;;15.04;98.61
22283;BME280;11310;51.528;21.204;2023-04-01T13:15:04;98200.06;;;14.50;100.00
22283;BME280;11310;51.528;21.204;2023-04-01T13:17:43;98205.28;;;14.12;100.00
22283;BME280;11310;51.528;21.204;2023-04-01T13:20:25;98206.59;;;13.78;100.00
22283;BME280;11310;51.528;21.204;2023-04-01T13:23:07;98214.25;;;13.51;100.00
22283;BME280;11310;51.528;21.204;2023-04-01T13:25:46;98211.16;;;13.37;100.00
22283;BME280;11310;51.528;21.204;2023-04-01T13:28:38;98231.16;;;13.19;100.00
22283;BME280;11310;51.528;21.204;2023-04-01T13:31:24;98242.22;;;12.92;100.00
22283;BME280;11310;51.528;21.204;2023-04-01T13:34:03;98243.84;;;12.52;100.00
22283;BME280;11310;51.528;21.204;2023-04-01T13:36:50;98248.41;;;12.08;100.00
22283;BME280;11310;51.528;21.204;2023-04-01T13:39:44;98254.06;;;11.70;100.00
22283;BME280;11310;51.528;21.204;2023-04-01T13:42:23;98255.47;;;11.52;100.00
22283;BME280;11310;51.528;21.204;2023-04-01T13:44:57;98260.84;;;11.39;100.00
22283;BME280;11310;51.528;21.204;2023-04-01T13:54:04;98254.97;;;11.14;100.00
22283;BME280;11310;51.528;21.204;2023-04-01T13:56:43;98254.34;;;11.10;100.00
22283;BME280;11310;51.528;21.204;2023-04-01T14:02:45;98249.09;;;11.10;100.00
22283;BME280;11310;51.528;21.204;2023-04-01T14:05:28;98263.78;;;11.13;100.00
22283;BME280;11310;51.528;21.204;2023-04-01T14:08:17;98266.41;;;11.13;100.00
22283;BME280;11310;51.528;21.204;2023-04-01T14:10:53;98267.38;;;11.12;100.00
22283;BME280;11310;51.528;21.204;2023-04-01T14:13:30;98264.84;;;11.10;100.00
22283;BME280;11310;51.528;21.204;2023-04-01T14:16:20;98262.34;;;11.09;100.00
22283;BME280;11310;51.528;21.204;2023-04-01T14:19:11;98270.09;;;11.10;100.00
22283;BME280;11310;51.528;21.204;2023-04-01T14:21:53;98265.47;;;11.14;100.00
22283;BME280;11310;51.528;21.204;2023-04-01T14:24:45;98274.06;;;11.16;100.00
22283;BME280;11310;51.528;21.204;2023-04-01T14:27:39;98272.88;;;11.20;100.00
22283;BME280;11310;51.528;21.204;2023-04-01T14:30:30;98274.06;;;11.16;100.00
22283;BME280;11310;51.528;21.204;2023-04-01T14:33:10;98272.41;;;11.15;100.00
22283;BME280;11310;51.528;21.204;2023-04-01T14:35:46;98273.22;;;11.15;100.00
22283;BME280;11310;51.528;21.204;2023-04-01T14:38:26;98275.03;;;11.15;100.00
22283;BME280;11310;51.528;21.204;2023-04-01T14:41:02;98274.28;;;11.13;100.00
22283;BME280;11310;51.528;21.204;2023-04-01T14:43:48;98265.69;;;11.11;100.00
22283;BME280;11310;51.528;21.204;2023-04-01T14:49:34;98281.66;;;11.08;100.00
22283;BME280;11310;51.528;21.204;2023-04-01T14:52:09;98276.66;;;11.05;100.00
22283;BME280;11310;51.528;21.204;2023-04-01T14:54:42;98278.81;;;11.00;100.00
22283;BME280;11310;51.528;21.204;2023-04-01T14:57:12;98273.56;;;11.00;100.00